スィクティフカル の空港の天気 - METARとTAF

Syktyvkar ( UUYY / SCW ) - ロシア スィクティフカル
飛行場実況気象(Metar)
観測時間01/20 20:30 MSK (01/20 17:30 UTC)
風向・風速北西 6m/s 瞬間風速14m/s
視程3300m
天気現象弱いしゅう雪
全天の8割程度の雲 雲底高度 550m
全天を覆う雲 雲底高度 910m
気温-4℃
湿度86%
気圧983hPa
METARUUYY 201730Z 32006G14MPS 3300 -SHSN BKN018CB OVC030 M04/M06 Q0983 R01/490331 TEMPO 0500 +SHSN RMK QFE728/0971
過去の天気等 Google飛行場航空写真 Wunderground天気予報

過去48時間のMETAR

飛行場予報(TAF)
発表時間: 1/20 20:00 MSK (1/20 17:00 UTC)
予報対象時間: 20日21時 MSK ~ 21日21時 MSK
風向・風速北西 6m/s 瞬間風速 12m/s
視程2,100m
天気現象弱いしゅう雪
全天の8割程度の雲 雲底高度 210m
全天の8割程度の積乱雲 雲底高度 460m
20日21時 MSK ~ 21日21時 MSK に一時的に
風向・風速西北西 15m/s
視程500m
天気現象強いしゅう雪 高い地吹雪
全天の8割程度の雲 雲底高度 90m
全天の8割程度の積乱雲 雲底高度 300m
TAF UUYY 201700Z 2018/2118 31006G12MPS 2100 -SHSN BKN007 BKN015CB
TEMPO 2018/2118 29015MPS 0500 +SHSN BLSN BKN003 BKN010CB